Bench Drive, Washington
Current Conditions -  °F | °C
As of 9:53 AM on Saturday 20 Dec 2014 (Local Time) from KHQM Reporting Station
Moderate Rain Moderate Rain  
Wind Chill: 44°   Ceiling: 1400
Heat Index: 48°   Visibility: 1mi
Dew Point: 47°   Wind: 9mph
Humidity: 96%   Direction: 60°ENE
Pressure: 29.56"   Gusts: NA
Location:  47.1445°N, 123.771°W
Report Text: KHQM 201753Z AUTO 06008KT 1SM RA BR VV014 09/08 A2956 RMK AO2 SLP013 P0019 60050 T00890083 10089 20083 55001
Loading
Personal Weather Stations






























Interactive Weather Map New forecast layout! Learn more

10-Day Weather Forecast

Advertisements
Track Severe Weather on mobile